Time;durP1;ratioP1;P1;durP2;ratioP2;P2;SDS_P1;SDS_P2;PMS_P1;PMS_P2;Temp;Humidity;BMP_temperature;BMP_pressure;BME280_temperature;BME280_humidity;BME280_pressure;Samples;Min_cycle;Max_cycle;Signal;HPM_P1;HPM_P2
2024/01/17 00:00:52;;;;;;;;;;;;;;;26.12;36.90;92791.59;4885993;29;9131;-41
2024/01/17 00:03:19;;;;;;;;;;;;;;;26.13;36.88;92789.59;4893830;29;7403;-43
2024/01/17 00:05:47;;;;;;;;;;;;;;;26.11;36.83;92790.16;4895196;29;8818;-41
2024/01/17 00:08:21;;;;;;;;;;;;;;;26.19;36.62;92794.91;4863070;29;7431;-40
2024/01/17 00:11:20;;;;;;;;;;;;;;;26.18;36.39;92783.16;4878661;29;8745;-59
2024/01/17 00:14:05;;;;;;;;;;;;;;;26.15;35.94;92784.25;4953849;29;7012;-60
2024/01/17 00:16:41;;;;;;;;;;;;;;;26.10;36.06;92788.66;4957098;28;7058;-59
2024/01/17 00:19:19;;;;;;;;;;;;;;;26.10;36.28;92782.41;4964419;28;9093;-43
2024/01/17 00:22:21;;;;;;;;;;;;;;;26.10;36.72;92779.66;4957609;28;8780;-43
2024/01/17 00:24:48;;;;;;;;;;;;;;;26.06;36.75;92780.00;4937682;29;7817;-43
2024/01/17 00:27:14;;;;;;;;;;;;;;;26.05;36.23;92778.56;4930108;29;9108;-42
2024/01/17 00:29:40;;;;;;;;;;;;;;;26.06;36.33;92793.78;4921155;29;7203;-42
2024/01/17 00:32:08;;;;;;;;;;;;;;;26.06;36.44;92782.75;4928435;29;8800;-44
2024/01/17 00:34:54;;;;;;;;;;;;;;;26.05;36.38;92775.78;4959007;28;7280;-44
2024/01/17 00:37:45;;;;;;;;;;;;;;;26.04;36.88;92763.28;4997468;28;7711;-42
2024/01/17 00:40:20;;;;;;;;;;;;;;;26.00;36.54;92754.66;4979121;28;7321;-42
2024/01/17 00:43:17;;;;;;;;;;;;;;;26.02;36.94;92756.88;4984493;28;7282;-43
2024/01/17 00:46:10;;;;;;;;;;;;;;;26.02;36.11;92735.56;4956466;28;7726;-44
2024/01/17 00:48:45;;;;;;;;;;;;;;;26.02;36.63;92738.31;4940992;28;9080;-43
2024/01/17 00:51:22;;;;;;;;;;;;;;;26.01;36.89;92728.56;4954644;28;7415;-42
2024/01/17 00:53:49;;;;;;;;;;;;;;;26.01;36.47;92736.13;4938610;28;9448;-42
2024/01/17 00:56:17;;;;;;;;;;;;;;;25.96;36.37;92710.25;4940383;28;8780;-42
2024/01/17 00:58:48;;;;;;;;;;;;;;;25.97;36.98;92700.66;4939020;28;9044;-43
2024/01/17 01:01:14;;;;;;;;;;;;;;;25.98;36.40;92699.41;4982248;28;9569;-43
2024/01/17 01:07:15;;;;;;;;;;;;;;;26.01;36.38;92689.28;4944824;28;7034;-42
2024/01/17 01:09:42;;;;;;;;;;;;;;;26.00;36.69;92677.53;4937206;28;7240;-43
2024/01/17 01:12:09;;;;;;;;;;;;;;;26.00;36.62;92672.03;4940780;28;8203;-42
2024/01/17 01:14:47;;;;;;;;;;;;;;;26.01;36.88;92678.28;4935934;28;7251;-42
2024/01/17 01:17:14;;;;;;;;;;;;;;;26.00;36.99;92674.03;4935806;29;6994;-43
2024/01/17 01:19:50;;;;;;;;;;;;;;;25.98;36.74;92660.81;4928647;29;7327;-43
2024/01/17 01:22:46;;;;;;;;;;;;;;;25.99;36.22;92662.28;4941797;28;7043;-42
2024/01/17 01:25:12;;;;;;;;;;;;;;;25.98;36.76;92658.06;4936483;29;9053;-42
2024/01/17 01:27:37;;;;;;;;;;;;;;;25.98;36.46;92649.06;4937040;28;7257;-44
2024/01/17 01:30:06;;;;;;;;;;;;;;;25.94;36.68;92638.44;4920530;29;7300;-37
2024/01/17 01:32:52;;;;;;;;;;;;;;;25.97;36.26;92647.59;4936592;28;7263;-37
2024/01/17 01:35:48;;;;;;;;;;;;;;;25.96;36.76;92637.88;4934583;29;8746;-37
2024/01/17 01:38:14;;;;;;;;;;;;;;;25.94;36.34;92649.47;4855337;29;7297;-37
2024/01/17 01:40:43;;;;;;;;;;;;;;;25.95;36.85;92645.41;4848745;29;6993;-37
2024/01/17 01:43:20;;;;;;;;;;;;;;;25.94;36.83;92641.19;4869896;29;6974;-38
2024/01/17 01:46:21;;;;;;;;;;;;;;;25.95;36.06;92655.69;4913382;29;7063;-38
2024/01/17 01:49:00;;;;;;;;;;;;;;;25.95;36.52;92650.16;4897431;29;7815;-38
2024/01/17 01:51:36;;;;;;;;;;;;;;;25.93;36.79;92672.03;4894132;29;8447;-38
2024/01/17 01:54:14;;;;;;;;;;;;;;;25.93;36.90;92669.28;4904781;29;6989;-38
2024/01/17 01:56:52;;;;;;;;;;;;;;;25.94;36.08;92668.75;4900693;29;9102;-37
2024/01/17 01:59:21;;;;;;;;;;;;;;;25.93;36.01;92664.50;4901009;29;9116;-37
2024/01/17 02:01:48;;;;;;;;;;;;;;;25.93;36.06;92675.53;4927374;28;8718;-38
2024/01/17 02:04:16;;;;;;;;;;;;;;;25.93;36.76;92681.03;4942491;28;9056;-37
2024/01/17 02:06:48;;;;;;;;;;;;;;;25.95;36.50;92677.72;4931860;29;7329;-37
2024/01/17 02:09:25;;;;;;;;;;;;;;;25.93;36.58;92681.03;4938908;28;7148;-38
2024/01/17 02:12:00;;;;;;;;;;;;;;;25.93;36.82;92681.03;4936079;28;8007;-38
2024/01/17 02:14:40;;;;;;;;;;;;;;;25.92;36.39;92668.56;4966410;28;7095;-37
2024/01/17 02:17:09;;;;;;;;;;;;;;;25.91;36.07;92677.34;5059293;28;7284;-38
2024/01/17 02:19:37;;;;;;;;;;;;;;;25.90;36.06;92654.59;5036211;28;7321;-38
2024/01/17 02:22:06;;;;;;;;;;;;;;;25.93;36.60;92661.00;5052797;28;7056;-38
2024/01/17 02:24:38;;;;;;;;;;;;;;;25.89;35.99;92652.38;5067439;28;7655;-37
2024/01/17 02:27:04;;;;;;;;;;;;;;;25.90;36.21;92651.81;5051911;28;7015;-37
2024/01/17 02:29:32;;;;;;;;;;;;;;;25.88;36.37;92648.19;5071010;28;7543;-38
2024/01/17 02:32:06;;;;;;;;;;;;;;;25.90;36.15;92656.63;5067788;28;7048;-38
2024/01/17 02:34:33;;;;;;;;;;;;;;;25.87;36.55;92660.47;5053793;28;8972;-38
2024/01/17 02:36:59;;;;;;;;;;;;;;;25.91;35.91;92664.31;5058125;28;6987;-37
2024/01/17 02:39:25;;;;;;;;;;;;;;;25.91;35.83;92669.84;5073057;28;9003;-58
2024/01/17 02:41:51;;;;;;;;;;;;;;;25.92;36.23;92659.56;5059513;28;9390;-58
2024/01/17 02:44:19;;;;;;;;;;;;;;;25.89;36.14;92649.63;5043746;28;9480;-57
2024/01/17 02:46:46;;;;;;;;;;;;;;;25.91;36.27;92642.28;5068889;28;9087;-57
2024/01/17 02:49:23;;;;;;;;;;;;;;;25.91;35.84;92649.81;5043693;28;7242;-57
2024/01/17 02:51:58;;;;;;;;;;;;;;;25.90;36.26;92648.34;5053517;28;9433;-58
2024/01/17 02:54:47;;;;;;;;;;;;;;;25.92;36.50;92654.03;5036898;28;6993;-57
2024/01/17 02:57:52;;;;;;;;;;;;;;;25.91;36.14;92660.84;5049817;28;7315;-58
2024/01/17 03:00:21;;;;;;;;;;;;;;;25.90;36.39;92649.06;5057274;28;7546;-58
2024/01/17 03:02:49;;;;;;;;;;;;;;;25.89;36.72;92636.59;5030579;28;9113;-57
2024/01/17 03:05:41;;;;;;;;;;;;;;;25.89;36.13;92636.59;5033604;28;9010;-57
2024/01/17 03:08:07;;;;;;;;;;;;;;;25.87;36.46;92633.66;5046453;28;7096;-58
2024/01/17 03:10:44;;;;;;;;;;;;;;;25.83;36.64;92627.81;5055055;28;9316;-58
2024/01/17 03:13:14;;;;;;;;;;;;;;;25.88;36.71;92620.66;5041041;28;7005;-57
2024/01/17 03:15:52;;;;;;;;;;;;;;;25.89;36.99;92617.31;5065399;28;9097;-57
2024/01/17 03:18:19;;;;;;;;;;;;;;;25.88;36.15;92602.06;5079771;28;7671;-57
2024/01/17 03:21:03;;;;;;;;;;;;;;;25.88;36.24;92602.06;5053394;28;9064;-57
2024/01/17 03:23:33;;;;;;;;;;;;;;;25.88;36.68;92607.56;5068897;28;7395;-58
2024/01/17 03:25:59;;;;;;;;;;;;;;;25.86;36.06;92599.13;5051844;28;9235;-57
2024/01/17 03:28:27;;;;;;;;;;;;;;;25.86;35.84;92599.13;5068072;28;7183;-58
2024/01/17 03:30:53;;;;;;;;;;;;;;;25.86;36.51;92587.41;5043118;28;9586;-58
2024/01/17 03:33:21;;;;;;;;;;;;;;;25.85;35.88;92575.66;5081939;28;7302;-58
2024/01/17 03:35:49;;;;;;;;;;;;;;;25.87;36.42;92566.84;5057795;28;6982;-57
2024/01/17 03:38:18;;;;;;;;;;;;;;;25.86;36.40;92563.34;5066021;28;7337;-57
2024/01/17 03:40:48;;;;;;;;;;;;;;;25.82;36.48;92554.72;5053597;28;8707;-58
2024/01/17 03:43:14;;;;;;;;;;;;;;;25.85;36.43;92559.13;5059345;28;9465;-57
2024/01/17 03:45:40;;;;;;;;;;;;;;;25.88;36.02;92562.81;5052630;28;7302;-58
2024/01/17 03:48:07;;;;;;;;;;;;;;;25.86;36.11;92560.59;5062027;28;9149;-57
2024/01/17 03:50:34;;;;;;;;;;;;;;;25.82;36.43;92554.72;5051859;28;9064;-38
2024/01/17 03:53:01;;;;;;;;;;;;;;;25.83;35.82;92542.44;5065776;28;7642;-38
2024/01/17 03:55:26;;;;;;;;;;;;;;;25.86;35.96;92541.31;5057016;28;7209;-37
2024/01/17 03:57:53;;;;;;;;;;;;;;;25.86;36.54;92540.59;5072723;28;8616;-37
2024/01/17 04:00:34;;;;;;;;;;;;;;;25.85;36.07;92523.31;5056267;28;7149;-37
2024/01/17 04:03:09;;;;;;;;;;;;;;;25.86;35.78;92526.81;5040228;28;6989;-37
2024/01/17 04:05:43;;;;;;;;;;;;;;;25.86;36.09;92516.53;5053952;28;7237;-37
2024/01/17 04:08:24;;;;;;;;;;;;;;;25.83;36.05;92512.13;5093587;28;8724;-37
2024/01/17 04:11:00;;;;;;;;;;;;;;;25.82;36.28;92493.41;5063777;28;7245;-37
2024/01/17 04:13:28;;;;;;;;;;;;;;;25.85;36.66;92482.00;5067210;28;7923;-37
2024/01/17 04:16:07;;;;;;;;;;;;;;;25.84;36.31;92477.03;5051852;28;8835;-38
2024/01/17 04:18:44;;;;;;;;;;;;;;;25.82;36.54;92466.59;5073873;28;7104;-37
2024/01/17 04:21:29;;;;;;;;;;;;;;;25.84;36.25;92477.78;5076587;28;7324;-37
2024/01/17 04:23:55;;;;;;;;;;;;;;;25.85;36.39;92471.00;5039760;28;7481;-37
2024/01/17 04:26:23;;;;;;;;;;;;;;;25.83;36.53;92470.09;5057247;28;9215;-37
2024/01/17 04:28:53;;;;;;;;;;;;;;;25.85;36.13;92482.00;5069370;28;8499;-37
2024/01/17 04:31:31;;;;;;;;;;;;;;;25.84;36.05;92460.53;5066561;28;7140;-37
2024/01/17 04:34:06;;;;;;;;;;;;;;;25.81;35.81;92467.16;5076247;28;9159;-37
2024/01/17 04:36:33;;;;;;;;;;;;;;;25.84;36.27;92474.28;5076536;28;9285;-37
2024/01/17 04:39:19;;;;;;;;;;;;;;;25.85;35.84;92456.50;5076242;28;7250;-37
2024/01/17 04:42:16;;;;;;;;;;;;;;;25.83;35.95;92446.03;5037556;28;7048;-37
2024/01/17 04:44:45;;;;;;;;;;;;;;;25.85;36.00;92437.22;4973304;28;9052;-37
2024/01/17 04:47:16;;;;;;;;;;;;;;;25.84;36.17;92419.22;4976061;28;7192;-37
2024/01/17 04:49:43;;;;;;;;;;;;;;;25.83;36.35;92407.47;4976423;28;7050;-37
2024/01/17 04:52:40;;;;;;;;;;;;;;;25.85;35.95;92415.19;4960163;28;7416;-37
2024/01/17 04:55:07;;;;;;;;;;;;;;;25.82;36.19;92403.25;4915628;29;8737;-37
2024/01/17 04:58:04;;;;;;;;;;;;;;;25.83;36.57;92437.78;4920000;29;6996;-37
2024/01/17 05:00:46;;;;;;;;;;;;;;;25.83;36.50;92418.50;4917883;29;9056;-59
2024/01/17 05:03:13;;;;;;;;;;;;;;;25.84;36.05;92419.22;4901958;29;7348;-59
2024/01/17 05:05:44;;;;;;;;;;;;;;;25.81;36.21;92406.56;4910763;29;9123;-59
2024/01/17 05:08:14;;;;;;;;;;;;;;;25.83;36.03;92420.53;4897191;29;7148;-59
2024/01/17 05:10:44;;;;;;;;;;;;;;;25.82;36.32;92427.31;4893080;29;6994;-59
2024/01/17 05:13:12;;;;;;;;;;;;;;;25.82;35.92;92422.53;4901016;29;7229;-59
2024/01/17 05:15:41;;;;;;;;;;;;;;;25.82;36.37;92428.03;4902375;29;9106;-59
2024/01/17 05:18:31;;;;;;;;;;;;;;;25.82;35.89;92417.03;4902378;29;7631;-60
2024/01/17 05:21:05;;;;;;;;;;;;;;;25.82;35.91;92421.78;4921600;29;7493;-59
2024/01/17 05:23:31;;;;;;;;;;;;;;;25.83;35.95;92412.25;4920133;29;6979;-59
2024/01/17 05:26:16;;;;;;;;;;;;;;;25.82;36.12;92406.00;4918234;29;7267;-60
2024/01/17 05:28:41;;;;;;;;;;;;;;;25.91;35.81;92434.97;4939689;28;8755;-59
2024/01/17 05:31:10;;;;;;;;;;;;;;;25.96;35.66;92407.22;4967150;28;8768;-59
2024/01/17 05:33:36;;;;;;;;;;;;;;;25.96;36.30;92415.50;5004665;28;6990;-59
2024/01/17 05:36:02;;;;;;;;;;;;;;;25.98;36.63;92418.41;5016639;28;6917;-59
2024/01/17 05:38:28;;;;;;;;;;;;;;;26.02;35.92;92393.22;5037158;28;8702;-59
2024/01/17 05:41:30;;;;;;;;;;;;;;;26.04;36.24;92399.63;5055052;28;7453;-59
2024/01/17 05:44:41;;;;;;;;;;;;;;;26.06;35.82;92399.06;5050827;28;9129;-59
2024/01/17 05:47:15;;;;;;;;;;;;;;;26.05;36.33;92370.81;4998655;28;7258;-59
2024/01/17 05:49:41;;;;;;;;;;;;;;;25.99;36.38;92384.06;5020181;28;9248;-59
2024/01/17 05:52:08;;;;;;;;;;;;;;;26.05;36.45;92394.88;5012835;28;8196;-59
2024/01/17 05:54:35;;;;;;;;;;;;;;;26.07;36.59;92373.00;5010426;28;9112;-59
2024/01/17 05:57:34;;;;;;;;;;;;;;;26.09;36.33;92362.91;5016135;28;9078;-59
2024/01/17 06:00:00;;;;;;;;;;;;;;;26.08;36.68;92372.44;5010364;28;9135;-58
2024/01/17 06:02:32;;;;;;;;;;;;;;;26.09;36.36;92360.16;5005453;28;7483;-41
2024/01/17 06:05:09;;;;;;;;;;;;;;;26.10;35.91;92339.56;4996763;28;8891;-43
2024/01/17 06:07:45;;;;;;;;;;;;;;;26.12;35.32;92339.72;5018201;28;7216;-41
2024/01/17 06:10:41;;;;;;;;;;;;;;;26.10;34.99;92339.56;5009071;28;7069;-42
2024/01/17 06:13:09;;;;;;;;;;;;;;;26.10;35.18;92330.56;4967627;28;8737;-41
2024/01/17 06:15:47;;;;;;;;;;;;;;;26.11;35.58;92340.28;4954804;28;9102;-41
2024/01/17 06:18:24;;;;;;;;;;;;;;;26.11;35.25;92327.25;4961195;28;7167;-40
2024/01/17 06:20:59;;;;;;;;;;;;;;;26.10;35.44;92336.06;4935980;29;9084;-40
2024/01/17 06:23:39;;;;;;;;;;;;;;;26.12;35.54;92314.22;4942009;28;9038;-40
2024/01/17 06:26:21;;;;;;;;;;;;;;;26.12;35.34;92323.19;4958956;28;7002;-41
2024/01/17 06:28:49;;;;;;;;;;;;;;;26.12;34.92;92331.44;4993506;28;7015;-40
2024/01/17 06:31:25;;;;;;;;;;;;;;;26.11;35.37;92298.97;4976165;28;7598;-41
2024/01/17 06:33:51;;;;;;;;;;;;;;;26.10;35.12;92333.31;4977187;28;7166;-41
2024/01/17 06:36:26;;;;;;;;;;;;;;;26.09;35.57;92318.81;4977039;28;7532;-41
2024/01/17 06:39:30;;;;;;;;;;;;;;;26.11;35.31;92296.94;4982730;28;9466;-41
2024/01/17 06:42:06;;;;;;;;;;;;;;;26.13;39.01;92324.66;4993167;28;7079;-41
2024/01/17 06:44:46;;;;;;;;;;;;;;;26.19;44.13;92285.84;4989575;28;7117;-40
2024/01/17 06:47:13;;;;;;;;;;;;;;;26.23;46.20;92247.59;4991827;28;8702;-40
2024/01/17 06:49:41;;;;;;;;;;;;;;;26.28;47.77;92243.13;5023926;28;7432;-41
2024/01/17 06:52:46;;;;;;;;;;;;;;;26.35;47.92;92242.34;5059244;28;7374;-41
2024/01/17 06:55:29;;;;;;;;;;;;;;;26.34;46.48;92227.81;4986187;28;7247;-40
2024/01/17 06:58:05;;;;;;;;;;;;;;;26.34;44.69;92225.06;4998985;28;9040;-40
2024/01/17 07:00:31;;;;;;;;;;;;;;;26.35;42.33;92217.53;4990967;28;7002;-42
2024/01/17 07:03:34;;;;;;;;;;;;;;;26.32;40.72;92221.44;4981099;28;8708;-42
2024/01/17 07:06:55;;;;;;;;;;;;;;;26.24;39.51;92218.75;4997554;28;7053;-42
2024/01/17 07:09:23;;;;;;;;;;;;;;;26.16;38.61;92205.03;4978615;28;9135;-37
2024/01/17 07:12:07;;;;;;;;;;;;;;;26.11;37.34;92210.81;4979215;28;7519;-37
2024/01/17 07:14:48;;;;;;;;;;;;;;;26.08;36.82;92198.88;4974645;28;9676;-37
2024/01/17 07:17:28;;;;;;;;;;;;;;;26.01;36.94;92196.19;5003987;28;7327;-37
2024/01/17 07:20:04;;;;;;;;;;;;;;;26.05;36.91;92202.03;4980646;28;7446;-37
2024/01/17 07:23:10;;;;;;;;;;;;;;;26.06;37.34;92192.44;4999246;28;7222;-36
2024/01/17 07:25:44;;;;;;;;;;;;;;;26.04;36.80;92203.31;5000130;28;7386;-37
2024/01/17 07:28:14;;;;;;;;;;;;;;;26.06;37.38;92198.69;4977924;28;9205;-36
2024/01/17 07:30:42;;;;;;;;;;;;;;;26.08;37.75;92209.91;5064905;28;8851;-37
2024/01/17 07:33:08;;;;;;;;;;;;;;;26.09;36.90;92213.41;5050867;28;8779;-36
2024/01/17 07:35:34;;;;;;;;;;;;;;;26.09;36.93;92197.59;5073082;28;8577;-36
2024/01/17 07:38:07;;;;;;;;;;;;;;;26.10;37.39;92195.56;5058828;28;7058;-37
2024/01/17 07:40:37;;;;;;;;;;;;;;;26.12;37.02;92206.75;5041289;28;6984;-37
2024/01/17 07:43:08;;;;;;;;;;;;;;;26.11;37.59;92214.28;5037344;28;9405;-37
2024/01/17 07:45:39;;;;;;;;;;;;;;;26.12;36.84;92196.44;5068681;28;8762;-37
2024/01/17 07:48:06;;;;;;;;;;;;;;;26.12;36.99;92185.44;5054022;28;9053;-36
2024/01/17 07:50:32;;;;;;;;;;;;;;;26.15;37.14;92180.81;5063590;28;8207;-37
2024/01/17 07:53:11;;;;;;;;;;;;;;;26.15;37.21;92178.78;5059875;28;7127;-37
2024/01/17 07:55:40;;;;;;;;;;;;;;;26.20;36.62;92174.34;5057459;28;7273;-37
2024/01/17 07:58:33;;;;;;;;;;;;;;;26.16;37.35;92166.47;5060335;28;6931;-37
2024/01/17 08:01:08;;;;;;;;;;;;;;;26.17;37.23;92159.66;5000369;28;9075;-37
2024/01/17 08:03:46;;;;;;;;;;;;;;;26.21;36.30;92158.53;4998842;28;7239;-37
2024/01/17 08:06:12;;;;;;;;;;;;;;;26.25;36.77;92148.56;4984143;28;7240;-37
2024/01/17 08:08:38;;;;;;;;;;;;;;;26.31;36.40;92145.56;4983433;28;7076;-37
2024/01/17 08:11:04;;;;;;;;;;;;;;;26.43;35.95;92146.50;5001512;28;6992;-37
2024/01/17 08:13:33;;;;;;;;;;;;;;;26.53;36.14;92139.03;4972246;28;8867;-37
2024/01/17 08:16:05;;;;;;;;;;;;;;;26.54;35.89;92137.72;4985501;28;9102;-37
2024/01/17 08:18:40;;;;;;;;;;;;;;;26.45;35.85;92128.09;5007900;28;7079;-37
2024/01/17 08:21:22;;;;;;;;;;;;;;;26.42;35.79;92128.53;5004006;28;6987;-56
2024/01/17 08:24:01;;;;;;;;;;;;;;;26.41;35.79;92129.81;5010963;28;7276;-56
2024/01/17 08:26:28;;;;;;;;;;;;;;;26.44;35.96;92136.94;4997834;28;7166;-56
2024/01/17 08:28:57;;;;;;;;;;;;;;;26.47;36.10;92141.34;4970726;28;9124;-56
2024/01/17 08:31:26;;;;;;;;;;;;;;;26.44;36.31;92145.22;4988873;28;7300;-56
2024/01/17 08:33:52;;;;;;;;;;;;;;;26.39;36.10;92155.19;4996226;28;9160;-56
2024/01/17 08:36:21;;;;;;;;;;;;;;;26.37;36.49;92160.56;5016459;28;9008;-56
2024/01/17 08:38:49;;;;;;;;;;;;;;;26.38;36.07;92161.28;5063918;28;7070;-56
2024/01/17 08:41:58;;;;;;;;;;;;;;;26.37;37.12;92146.03;5055854;28;8897;-56
2024/01/17 08:44:36;;;;;;;;;;;;;;;26.36;36.16;92139.09;5051844;28;7427;-56
2024/01/17 08:47:14;;;;;;;;;;;;;;;26.34;36.59;92130.66;5055683;28;7228;-55
2024/01/17 08:49:51;;;;;;;;;;;;;;;26.33;36.80;92118.16;5038979;28;9140;-56
2024/01/17 08:52:25;;;;;;;;;;;;;;;26.31;36.53;92106.97;5055804;28;8771;-56
2024/01/17 08:55:08;;;;;;;;;;;;;;;26.31;36.61;92107.72;5055317;28;8750;-56
2024/01/17 08:57:47;;;;;;;;;;;;;;;26.28;36.50;92092.31;5055109;28;8991;-56
2024/01/17 09:01:07;;;;;;;;;;;;;;;26.31;36.88;92095.97;5038757;28;8795;-56
2024/01/17 09:03:35;;;;;;;;;;;;;;;26.31;36.32;92104.22;5062790;28;8792;-56
2024/01/17 09:06:10;;;;;;;;;;;;;;;26.29;36.85;92104.06;5052927;28;7242;-56
2024/01/17 09:08:36;;;;;;;;;;;;;;;26.28;36.80;92114.34;5055203;28;8748;-56
2024/01/17 09:11:19;;;;;;;;;;;;;;;26.26;36.59;92105.19;5069599;28;10218;-56
2024/01/17 09:14:00;;;;;;;;;;;;;;;26.28;36.81;92108.09;5038393;28;7264;-56
2024/01/17 09:16:30;;;;;;;;;;;;;;;26.26;36.71;92111.44;5038381;28;7336;-57
2024/01/17 09:19:01;;;;;;;;;;;;;;;26.29;36.95;92115.09;5055670;28;6995;-56
2024/01/17 09:21:28;;;;;;;;;;;;;;;26.29;37.63;92123.34;5039028;28;9465;-56
2024/01/17 09:23:55;;;;;;;;;;;;;;;26.28;37.17;92116.38;5057267;28;9516;-56
2024/01/17 09:26:23;;;;;;;;;;;;;;;26.30;37.03;92102.75;5065332;28;6965;-56
2024/01/17 09:28:49;;;;;;;;;;;;;;;26.29;37.11;92104.81;5030821;28;6982;-41
2024/01/17 09:31:15;;;;;;;;;;;;;;;26.27;36.21;92106.66;5051358;28;9504;-41
2024/01/17 09:33:41;;;;;;;;;;;;;;;26.25;36.37;92104.50;5021506;28;8909;-42
2024/01/17 09:36:07;;;;;;;;;;;;;;;26.25;37.22;92095.50;5051324;28;7015;-37
2024/01/17 09:38:35;;;;;;;;;;;;;;;26.26;37.11;92102.44;5053198;28;9007;-36
2024/01/17 09:41:04;;;;;;;;;;;;;;;26.21;36.86;92084.84;5048358;28;9008;-37
2024/01/17 09:43:31;;;;;;;;;;;;;;;26.27;36.47;92081.88;5045154;28;9051;-36
2024/01/17 09:46:00;;;;;;;;;;;;;;;26.24;37.11;92066.47;5076645;28;9100;-37
2024/01/17 09:48:26;;;;;;;;;;;;;;;26.25;36.92;92065.91;5052121;28;9120;-37
2024/01/17 09:51:23;;;;;;;;;;;;;;;26.27;37.07;92051.56;5054741;28;7259;-37
2024/01/17 09:54:09;;;;;;;;;;;;;;;26.25;36.71;92068.66;4990894;28;7277;-37
2024/01/17 09:56:41;;;;;;;;;;;;;;;26.27;37.03;92066.06;4977289;28;7259;-36
2024/01/17 09:59:34;;;;;;;;;;;;;;;26.29;37.17;92062.72;5012664;28;7251;-36
2024/01/17 10:02:01;;;;;;;;;;;;;;;26.28;37.29;92059.25;5013791;28;7285;-37
2024/01/17 10:04:29;;;;;;;;;;;;;;;26.29;37.11;92066.22;4959705;28;7070;-37
2024/01/17 10:06:56;;;;;;;;;;;;;;;26.28;37.19;92075.03;5008817;28;7146;-36
2024/01/17 10:10:07;;;;;;;;;;;;;;;26.28;37.35;92083.31;4994058;28;7718;-37
2024/01/17 10:12:44;;;;;;;;;;;;;;;26.26;37.39;92078.38;4926222;29;7011;-37
2024/01/17 10:15:14;;;;;;;;;;;;;;;26.28;37.42;92083.31;4929196;29;7390;-37
2024/01/17 10:17:52;;;;;;;;;;;;;;;26.28;37.76;92070.25;4947155;28;7167;-36
2024/01/17 10:20:20;;;;;;;;;;;;;;;26.25;37.59;92070.69;4952605;28;7236;-37
2024/01/17 10:23:00;;;;;;;;;;;;;;;26.27;37.58;92079.09;4936267;29;6856;-37
2024/01/17 10:25:47;;;;;;;;;;;;;;;26.30;43.67;92083.47;4935600;29;8587;-37
2024/01/17 10:28:23;;;;;;;;;;;;;;;26.36;46.34;92062.63;4935701;29;8717;-37
2024/01/17 10:30:50;;;;;;;;;;;;;;;26.37;46.27;92050.31;4926595;28;9217;-37
2024/01/17 10:33:18;;;;;;;;;;;;;;;26.42;44.08;92023.78;4963847;28;9130;-37
2024/01/17 10:36:04;;;;;;;;;;;;;;;26.41;43.01;92036.09;4940371;28;7825;-36
2024/01/17 10:38:32;;;;;;;;;;;;;;;26.41;42.25;92022.31;4969143;28;8977;-37
2024/01/17 10:41:31;;;;;;;;;;;;;;;26.41;41.42;92027.84;4990481;28;9446;-41
2024/01/17 10:44:08;;;;;;;;;;;;;;;26.39;40.96;92030.44;4948218;28;6982;-42
2024/01/17 10:46:47;;;;;;;;;;;;;;;26.34;40.05;92021.13;4990426;28;7195;-43
2024/01/17 10:49:31;;;;;;;;;;;;;;;26.34;39.04;92012.16;5010172;28;7225;-43
2024/01/17 10:52:17;;;;;;;;;;;;;;;26.32;38.66;92031.28;5034104;28;9133;-43
2024/01/17 10:54:50;;;;;;;;;;;;;;;26.27;38.28;92021.25;5034385;28;7199;-42
2024/01/17 10:57:26;;;;;;;;;;;;;;;26.23;37.31;92018.88;5061520;28;9076;-42
2024/01/17 11:00:29;;;;;;;;;;;;;;;26.14;37.60;92012.03;5053065;28;7032;-42
2024/01/17 11:03:02;;;;;;;;;;;;;;;26.12;37.60;92017.38;5011252;28;7927;-42
2024/01/17 11:05:49;;;;;;;;;;;;;;;26.11;37.82;92012.44;5009301;28;7195;-41
2024/01/17 11:08:25;;;;;;;;;;;;;;;26.10;37.85;92010.97;4979648;28;7358;-43
2024/01/17 11:11:16;;;;;;;;;;;;;;;26.08;37.60;92017.06;5000921;28;9127;-42
2024/01/17 11:13:57;;;;;;;;;;;;;;;26.07;37.64;92023.84;4986699;28;8726;-42
2024/01/17 11:16:33;;;;;;;;;;;;;;;26.04;38.44;92013.97;5007464;28;7009;-41
2024/01/17 11:19:09;;;;;;;;;;;;;;;25.98;38.39;91999.00;4985179;28;8784;-42
2024/01/17 11:21:50;;;;;;;;;;;;;;;26.01;38.44;92008.88;5011732;28;7296;-41
2024/01/17 11:24:47;;;;;;;;;;;;;;;26.03;38.20;91993.22;4995716;28;6983;-43
2024/01/17 11:27:59;;;;;;;;;;;;;;;26.04;38.03;91997.44;4994317;28;9084;-43
2024/01/17 11:30:28;;;;;;;;;;;;;;;26.09;37.95;91984.75;4991470;28;9233;-42
2024/01/17 11:33:11;;;;;;;;;;;;;;;26.10;38.46;91977.91;5001106;28;7096;-42
2024/01/17 11:35:44;;;;;;;;;;;;;;;26.10;37.77;91981.41;4990721;28;7282;-42
2024/01/17 11:38:57;;;;;;;;;;;;;;;26.12;37.91;91984.31;4998818;28;7082;-41
2024/01/17 11:42:01;;;;;;;;;;;;;;;26.16;38.42;91998.41;4989803;28;7167;-41
2024/01/17 11:44:28;;;;;;;;;;;;;;;26.18;38.16;91975.81;4950205;28;7236;-42
2024/01/17 11:47:06;;;;;;;;;;;;;;;26.19;37.85;91973.78;4945716;29;7424;-42
2024/01/17 11:49:46;;;;;;;;;;;;;;;26.22;37.96;91969.88;4958105;28;9027;-42
2024/01/17 11:52:44;;;;;;;;;;;;;;;26.26;37.79;91975.69;4963137;28;7416;-42
2024/01/17 11:55:30;;;;;;;;;;;;;;;26.26;37.76;91967.41;4956645;28;7659;-41
2024/01/17 11:58:17;;;;;;;;;;;;;;;26.29;38.01;91978.03;4954856;28;8328;-44
2024/01/17 12:00:50;;;;;;;;;;;;;;;26.26;38.18;91970.91;4956298;28;6994;-41
2024/01/17 12:03:30;;;;;;;;;;;;;;;26.30;38.28;91967.72;4950008;28;8765;-41
2024/01/17 12:05:57;;;;;;;;;;;;;;;26.30;37.88;91962.22;4954692;28;9376;-41
2024/01/17 12:08:25;;;;;;;;;;;;;;;26.29;37.49;91950.47;4936773;28;7478;-41
2024/01/17 12:11:03;;;;;;;;;;;;;;;26.31;37.64;91961.66;4960306;28;8851;-42
2024/01/17 12:14:03;;;;;;;;;;;;;;;26.33;37.83;91952.81;4972330;28;7063;-41
2024/01/17 12:16:47;;;;;;;;;;;;;;;26.34;37.84;91929.47;5012442;28;7540;-43
2024/01/17 12:19:14;;;;;;;;;;;;;;;26.30;38.27;91918.84;5029311;28;7548;-41
2024/01/17 12:21:41;;;;;;;;;;;;;;;26.33;37.58;91916.97;5032843;28;7220;-42
2024/01/17 12:24:12;;;;;;;;;;;;;;;26.34;37.52;91910.88;5057196;28;6993;-42
2024/01/17 12:26:42;;;;;;;;;;;;;;;26.32;37.99;91901.75;5033694;28;7446;-42
2024/01/17 12:29:09;;;;;;;;;;;;;;;26.33;38.28;91906.69;5036063;28;9079;-42
2024/01/17 12:31:36;;;;;;;;;;;;;;;26.35;38.55;91900.59;5070630;28;6975;-42
2024/01/17 12:34:09;;;;;;;;;;;;;;;26.35;37.81;91906.84;5047273;28;8742;-43
2024/01/17 12:36:51;;;;;;;;;;;;;;;26.37;37.72;91909.00;5059166;28;7265;-42
2024/01/17 12:39:26;;;;;;;;;;;;;;;26.36;38.17;91910.34;5077357;28;7233;-41
2024/01/17 12:42:16;;;;;;;;;;;;;;;26.36;37.39;91899.31;5066094;28;8770;-41
2024/01/17 12:45:13;;;;;;;;;;;;;;;26.35;38.02;91909.59;5057640;28;8788;-42
2024/01/17 12:47:40;;;;;;;;;;;;;;;26.32;37.80;91905.22;5000549;28;7352;-42
2024/01/17 12:50:08;;;;;;;;;;;;;;;26.33;37.51;91916.97;4987400;28;9077;-43
2024/01/17 12:53:24;;;;;;;;;;;;;;;26.35;37.91;91904.09;4964620;28;7182;-41
2024/01/17 12:55:51;;;;;;;;;;;;;;;26.35;37.41;91909.59;4939483;28;8747;-44
2024/01/17 12:58:17;;;;;;;;;;;;;;;26.34;37.84;91912.94;4956560;28;6994;-42
2024/01/17 13:00:49;;;;;;;;;;;;;;;26.33;37.63;91901.19;4952671;28;7404;-37
2024/01/17 13:03:16;;;;;;;;;;;;;;;26.33;37.94;91905.97;4943106;28;9072;-37
2024/01/17 13:05:44;;;;;;;;;;;;;;;26.31;37.75;91897.53;4957379;28;7220;-37
2024/01/17 13:08:18;;;;;;;;;;;;;;;26.28;37.80;91885.63;4932416;28;7235;-37
2024/01/17 13:11:13;;;;;;;;;;;;;;;26.30;38.21;91907.84;4940965;28;7266;-37
2024/01/17 13:13:41;;;;;;;;;;;;;;;26.29;38.23;91895.38;4925406;28;7427;-37
2024/01/17 13:16:19;;;;;;;;;;;;;;;26.28;37.65;91893.91;4953926;28;7134;-37
2024/01/17 13:19:03;;;;;;;;;;;;;;;26.30;38.14;91909.84;4953728;28;9260;-37
2024/01/17 13:21:48;;;;;;;;;;;;;;;26.30;37.92;91869.25;4942987;28;7374;-37
2024/01/17 13:24:23;;;;;;;;;;;;;;;26.31;37.75;91886.53;4968316;28;9404;-37
2024/01/17 13:27:10;;;;;;;;;;;;;;;26.27;37.92;91853.16;4984837;28;8413;-37
2024/01/17 13:29:38;;;;;;;;;;;;;;;26.27;37.78;91866.94;4973169;28;7074;-37
2024/01/17 13:32:04;;;;;;;;;;;;;;;26.27;38.21;91858.66;5009246;28;7228;-37
2024/01/17 13:34:30;;;;;;;;;;;;;;;26.31;37.52;91851.44;5052030;28;8666;-37
2024/01/17 13:37:22;;;;;;;;;;;;;;;26.31;37.55;91864.47;5069243;28;8762;-37
2024/01/17 13:39:57;;;;;;;;;;;;;;;26.31;38.28;91864.47;4963787;28;8482;-37
2024/01/17 13:42:25;;;;;;;;;;;;;;;26.29;37.77;91856.06;4959042;28;7560;-37
2024/01/17 13:45:10;;;;;;;;;;;;;;;26.32;38.21;91843.91;4954440;28;7390;-37
2024/01/17 13:47:43;;;;;;;;;;;;;;;26.32;37.96;91843.91;4982325;28;7074;-37